Time;durP1;ratioP1;P1;durP2;ratioP2;P2;SDS_P1;SDS_P2;PMS_P1;PMS_P2;Temp;Humidity;BMP_temperature;BMP_pressure;BME280_temperature;BME280_humidity;BME280_pressure;Samples;Min_cycle;Max_cycle;Signal;HPM_P1;HPM_P2
2024/04/10 00:00:15;;;;;;;0.52;0.43;;;9.60;64.90;;;5.07;100.00;96207.50;5396560;26;20008;-54
2024/04/10 00:02:41;;;;;;;0.85;0.43;;;9.60;64.90;;;5.03;100.00;96212.41;5390993;26;20015;-53
2024/04/10 00:05:13;;;;;;;1.20;0.57;;;9.60;64.90;;;5.05;100.00;96214.84;5397763;26;20012;-53
2024/04/10 00:07:39;;;;;;;1.93;0.60;;;9.60;65.00;;;5.04;100.00;96211.38;5405789;26;20014;-52
2024/04/10 00:10:05;;;;;;;1.85;0.50;;;9.60;64.90;;;5.08;100.00;96222.34;5390446;26;20053;-52
2024/04/10 00:12:31;;;;;;;0.63;0.40;;;9.60;65.00;;;5.08;100.00;96223.16;5401735;26;20763;-55
2024/04/10 00:14:58;;;;;;;2.70;0.75;;;9.60;65.00;;;5.09;100.00;96218.69;5392122;26;20015;-52
2024/04/10 00:17:28;;;;;;;0.60;0.50;;;9.60;65.00;;;5.08;100.00;96223.16;5407551;26;20481;-53
2024/04/10 00:19:54;;;;;;;1.35;0.55;;;9.60;65.10;;;5.10;100.00;96220.28;5390454;26;20011;-51
2024/04/10 00:22:20;;;;;;;1.05;0.57;;;9.60;65.00;;;5.09;100.00;96223.97;5403985;26;20025;-51
2024/04/10 00:24:46;;;;;;;0.60;0.50;;;9.60;65.00;;;5.05;100.00;96220.94;5398563;26;20007;-56
2024/04/10 00:27:13;;;;;;;0.60;0.60;;;9.60;65.00;;;5.07;100.00;96223.34;5400153;26;20351;-51
2024/04/10 00:29:39;;;;;;;0.80;0.60;;;9.60;65.00;;;5.09;100.00;96219.47;5396809;26;20581;-57
2024/04/10 00:32:05;;;;;;;1.60;0.70;;;9.60;65.00;;;5.09;100.00;96226.59;5402068;26;20026;-51
2024/04/10 00:34:32;;;;;;;2.05;0.57;;;9.60;65.00;;;5.06;100.00;96222.56;5398815;26;20022;-52
2024/04/10 00:36:57;;;;;;;1.27;0.52;;;9.60;65.00;;;5.05;100.00;96222.78;5399792;26;20021;-54
2024/04/10 00:39:23;;;;;;;0.50;0.50;;;9.60;65.10;;;5.06;100.00;96230.47;5404268;26;20011;-56
2024/04/10 00:41:49;;;;;;;1.25;0.50;;;9.60;65.10;;;5.07;100.00;96229.44;5392475;26;20007;-52
2024/04/10 00:44:15;;;;;;;3.60;0.70;;;9.70;65.10;;;5.09;100.00;96234.53;5403688;26;20007;-53
2024/04/10 00:46:41;;;;;;;1.83;0.77;;;9.70;65.20;;;5.06;100.00;96234.94;5399170;26;20022;-53
2024/04/10 00:49:07;;;;;;;4.13;0.70;;;9.70;65.20;;;5.07;100.00;96236.56;5403319;26;20006;-54
2024/04/10 00:51:34;;;;;;;3.28;0.55;;;9.70;65.20;;;5.06;100.00;96234.94;5395593;26;20003;-51
2024/04/10 00:54:02;;;;;;;1.75;0.73;;;9.70;65.10;;;5.03;100.00;96243.28;5401425;26;20013;-54
2024/04/10 00:56:28;;;;;;;1.15;0.60;;;9.70;65.20;;;5.01;100.00;96243.50;5403565;26;20007;-55
2024/04/10 00:59:00;;;;;;;1.85;0.80;;;9.70;65.20;;;5.04;100.00;96239.63;5394115;26;20353;-56
2024/04/10 01:01:26;;;;;;;1.90;0.73;;;9.70;65.20;;;5.04;100.00;96232.50;5401486;26;20500;-55
2024/04/10 01:03:52;;;;;;;1.30;0.70;;;9.70;65.10;;;5.02;100.00;96236.41;5397040;26;20079;-56
2024/04/10 01:06:18;;;;;;;2.03;0.85;;;9.70;65.10;;;4.98;100.00;96235.19;5399116;26;20018;-52
2024/04/10 01:08:44;;;;;;;1.50;0.73;;;9.70;65.10;;;4.95;100.00;96236.47;5403795;26;20011;-57
2024/04/10 01:11:10;;;;;;;1.70;0.82;;;9.70;65.10;;;4.95;100.00;96241.75;5395871;26;20007;-55
2024/04/10 01:13:36;;;;;;;1.27;0.85;;;9.60;65.20;;;4.93;100.00;96241.13;5407978;26;20103;-56
2024/04/10 01:16:03;;;;;;;0.98;0.82;;;9.70;65.20;;;4.91;100.00;96247.63;5388869;26;20004;-55
2024/04/10 01:18:30;;;;;;;1.85;0.80;;;9.60;65.20;;;4.87;100.00;96253.34;5403740;26;20457;-57
2024/04/10 01:20:56;;;;;;;1.70;0.93;;;9.60;65.20;;;4.87;100.00;96255.97;5394134;26;20039;-54
2024/04/10 01:23:22;;;;;;;1.23;0.80;;;9.60;65.20;;;4.85;100.00;96259.84;5405266;26;20572;-56
2024/04/10 01:25:49;;;;;;;1.27;0.90;;;9.60;65.30;;;4.84;100.00;96256.41;5399580;26;20585;-56
2024/04/10 01:28:15;;;;;;;1.77;1.00;;;9.60;65.30;;;4.84;100.00;96251.13;5405227;26;20003;-54
2024/04/10 01:30:41;;;;;;;1.73;0.80;;;9.60;65.40;;;4.85;100.00;96250.09;5396768;26;20011;-56
2024/04/10 01:33:07;;;;;;;2.78;1.20;;;9.60;65.40;;;4.86;100.00;96259.66;5400100;26;20080;-56
2024/04/10 01:35:34;;;;;;;1.67;0.82;;;9.60;65.50;;;4.84;100.00;96256.41;5393175;26;20015;-54
2024/04/10 01:38:00;;;;;;;2.30;1.20;;;9.60;65.50;;;4.82;100.00;96257.63;5402240;26;20389;-55
2024/04/10 01:40:29;;;;;;;3.45;0.90;;;9.60;65.50;;;4.82;100.00;96260.28;5400321;26;20010;-51
2024/04/10 01:42:55;;;;;;;1.20;0.80;;;9.60;65.60;;;4.83;100.00;96259.28;5382850;26;20023;-56
2024/04/10 01:45:21;;;;;;;0.95;0.70;;;9.60;65.60;;;4.73;100.00;96259.72;5403457;26;20003;-55
2024/04/10 01:47:47;;;;;;;0.93;0.80;;;9.50;65.60;;;4.77;100.00;96253.00;5397593;26;20051;-57
2024/04/10 01:50:13;;;;;;;3.13;0.90;;;9.50;65.60;;;4.77;100.00;96260.91;5403513;26;20009;-52
2024/04/10 01:52:38;;;;;;;0.77;0.60;;;9.50;65.60;;;4.78;100.00;96249.31;5399924;26;20015;-57
2024/04/10 01:55:06;;;;;;;3.10;0.65;;;9.50;65.60;;;4.74;100.00;96242.88;5402774;26;20019;-56
2024/04/10 01:57:32;;;;;;;2.85;0.80;;;9.50;65.60;;;4.72;100.00;96247.53;5395191;26;20013;-53
2024/04/10 01:59:58;;;;;;;1.27;0.70;;;9.50;65.60;;;4.71;100.00;96239.84;5397435;26;20013;-56
2024/04/10 02:02:24;;;;;;;1.77;0.82;;;9.50;65.70;;;4.72;100.00;96233.53;5399660;26;19999;-56
2024/04/10 02:04:50;;;;;;;1.10;0.80;;;9.50;65.70;;;4.69;100.00;96234.75;5400592;26;20398;-57
2024/04/10 02:07:16;;;;;;;4.20;0.80;;;9.40;65.70;;;4.67;100.00;96239.47;5401924;26;20012;-55
2024/04/10 02:09:42;;;;;;;1.70;1.15;;;9.40;65.80;;;4.65;100.00;96241.50;5403117;26;20002;-54
2024/04/10 02:12:08;;;;;;;2.50;0.90;;;9.40;65.80;;;4.62;100.00;96245.34;5402445;26;20020;-52
2024/04/10 02:14:35;;;;;;;1.20;0.80;;;9.30;65.80;;;4.60;100.00;96247.38;5401573;26;20007;-55
2024/04/10 02:17:01;;;;;;;2.28;0.80;;;9.30;65.80;;;4.58;100.00;96251.28;5400622;26;20355;-57
2024/04/10 02:19:27;;;;;;;1.30;0.98;;;9.30;65.70;;;4.55;100.00;96243.78;5405611;26;20097;-54
2024/04/10 02:21:53;;;;;;;2.38;0.80;;;9.20;65.60;;;4.55;100.00;96249.06;5398041;26;20015;-57
2024/04/10 02:24:21;;;;;;;4.53;0.93;;;9.20;65.60;;;4.54;100.00;96245.59;5406703;26;20733;-56
2024/04/10 02:26:47;;;;;;;1.02;0.80;;;9.20;65.70;;;4.54;100.00;96244.78;5397907;26;20007;-57
2024/04/10 02:29:14;;;;;;;1.55;0.77;;;9.20;65.70;;;4.51;100.00;96250.47;5399994;26;20084;-57
2024/04/10 02:31:41;;;;;;;3.05;1.30;;;9.20;65.70;;;4.51;100.00;96264.50;5407361;26;20034;-55
2024/04/10 02:34:06;;;;;;;1.33;1.15;;;9.20;65.70;;;4.52;100.00;96262.66;5404603;26;20076;-54
2024/04/10 02:36:32;;;;;;;3.08;1.30;;;9.20;65.80;;;4.52;100.00;96267.94;5403096;26;20006;-52
2024/04/10 02:38:58;;;;;;;1.25;0.90;;;9.30;65.90;;;4.54;100.00;96271.97;5396388;26;20008;-55
2024/04/10 02:41:24;;;;;;;1.50;1.00;;;9.30;65.90;;;4.56;100.00;96269.94;5403073;26;20078;-53
2024/04/10 02:43:50;;;;;;;2.38;0.98;;;9.30;66.00;;;4.57;100.00;96263.63;5398907;26;20522;-57
2024/04/10 02:46:16;;;;;;;2.08;1.10;;;9.30;66.80;;;4.59;100.00;96260.81;5404614;26;20547;-56
2024/04/10 02:48:45;;;;;;;2.00;1.08;;;9.30;66.00;;;4.62;100.00;96268.28;5403483;26;20076;-52
2024/04/10 02:51:12;;;;;;;1.42;0.90;;;9.40;66.90;;;4.62;100.00;96263.81;5394042;26;20353;-56
2024/04/10 02:53:38;;;;;;;1.73;1.00;;;9.40;66.10;;;4.63;100.00;96276.00;5402883;26;20021;-57
2024/04/10 02:56:04;;;;;;;4.55;0.90;;;9.40;66.10;;;4.63;100.00;96280.47;5400547;26;20008;-56
2024/04/10 02:58:30;;;;;;;1.42;0.80;;;9.40;66.10;;;4.62;100.00;96277.03;5395432;26;20011;-55
2024/04/10 03:00:57;;;;;;;1.60;1.00;;;9.40;66.10;;;4.65;100.00;96275.78;5391891;26;20384;-55
2024/04/10 03:03:25;;;;;;;2.38;0.77;;;9.40;66.10;;;4.71;100.00;96280.22;5395542;26;19999;-56
2024/04/10 03:06:07;;;;;;;0.93;0.70;;;9.40;66.10;;;4.74;100.00;96276.38;5399801;26;20016;-56
2024/04/10 03:08:36;;;;;;;1.30;0.90;;;9.40;66.20;;;4.76;100.00;96285.66;5388921;26;20011;-56
2024/04/10 03:11:08;;;;;;;2.97;0.82;;;9.40;66.10;;;4.77;100.00;96284.69;5396320;26;20229;-57
2024/04/10 03:13:35;;;;;;;1.00;0.90;;;9.40;66.10;;;4.76;100.00;96279.59;5399409;26;20003;-56
2024/04/10 03:16:01;;;;;;;0.60;0.60;;;9.40;66.00;;;4.75;100.00;96278.78;5392289;26;20019;-57
2024/04/10 03:18:27;;;;;;;1.35;0.80;;;9.40;66.00;;;4.76;100.00;96285.66;5404829;26;20057;-55
2024/04/10 03:20:53;;;;;;;0.98;0.70;;;9.50;66.00;;;4.74;100.00;96281.66;5395683;26;20011;-57
2024/04/10 03:23:20;;;;;;;2.42;0.70;;;9.50;66.00;;;4.76;100.00;96280.41;5405847;26;20014;-56
2024/04/10 03:25:46;;;;;;;0.70;0.70;;;9.50;66.00;;;4.78;100.00;96285.47;5391694;26;20015;-55
2024/04/10 03:28:12;;;;;;;1.52;0.73;;;9.50;66.10;;;4.77;100.00;96294.44;5396780;26;20018;-55
2024/04/10 03:30:37;;;;;;;2.50;0.60;;;9.50;66.10;;;4.77;100.00;96294.44;5396528;26;20003;-53
2024/04/10 03:33:04;;;;;;;1.13;0.52;;;9.50;66.00;;;4.79;100.00;96297.66;5394428;26;20214;-54
2024/04/10 03:35:30;;;;;;;0.95;0.68;;;9.50;66.10;;;4.77;100.00;96295.22;5396142;26;20470;-56
2024/04/10 03:37:56;;;;;;;2.22;0.70;;;9.50;66.00;;;4.76;100.00;96295.44;5403967;26;20018;-55
2024/04/10 03:40:22;;;;;;;1.45;0.70;;;9.50;65.90;;;4.77;100.00;96300.50;5395684;26;20342;-57
2024/04/10 03:42:48;;;;;;;1.17;0.60;;;9.50;66.00;;;4.78;100.00;96296.03;5397606;26;20010;-56
2024/04/10 03:45:14;;;;;;;1.63;0.52;;;9.50;65.90;;;4.79;100.00;96308.19;5403119;26;20003;-57
2024/04/10 03:47:41;;;;;;;1.50;0.65;;;9.50;66.00;;;4.77;100.00;96307.63;5403059;26;20018;-53
2024/04/10 03:50:08;;;;;;;1.23;0.63;;;9.50;65.90;;;4.71;100.00;96308.47;5399734;26;20012;-54
2024/04/10 03:52:34;;;;;;;1.30;0.52;;;9.50;65.90;;;4.73;100.00;96311.69;5400919;26;20373;-55
2024/04/10 03:55:00;;;;;;;1.15;0.60;;;9.50;65.90;;;4.75;100.00;96310.47;5394304;26;20023;-56
2024/04/10 03:57:28;;;;;;;3.05;0.57;;;9.50;65.90;;;4.76;100.00;96306.78;5398483;26;20104;-50
2024/04/10 03:59:54;;;;;;;0.60;0.55;;;9.60;65.90;;;4.75;100.00;96291.19;5400407;26;20015;-56
2024/04/10 04:02:20;;;;;;;0.85;0.55;;;9.50;65.90;;;4.73;100.00;96301.97;5403606;26;20082;-54
2024/04/10 04:04:45;;;;;;;1.90;0.70;;;9.60;65.90;;;4.73;100.00;96298.47;5402525;26;20011;-52
2024/04/10 04:07:11;;;;;;;0.82;0.40;;;9.60;65.90;;;4.72;100.00;96300.31;5405016;26;20007;-51
2024/04/10 04:09:37;;;;;;;1.50;0.60;;;9.50;65.80;;;4.70;100.00;96312.94;5394771;26;20015;-51
2024/04/10 04:12:04;;;;;;;0.80;0.40;;;9.50;65.80;;;4.71;100.00;96321.66;5401566;26;20014;-53
2024/04/10 04:14:30;;;;;;;1.48;0.50;;;9.50;65.80;;;4.72;100.00;96325.91;5404230;26;20013;-52
2024/04/10 04:16:56;;;;;;;1.30;0.70;;;9.50;65.80;;;4.74;100.00;96319.41;5395125;26;20007;-52
2024/04/10 04:19:22;;;;;;;2.17;0.55;;;9.50;65.80;;;4.77;100.00;96326.09;5402076;26;20019;-54
2024/04/10 04:21:48;;;;;;;1.83;0.60;;;9.60;65.90;;;4.79;100.00;96329.31;5400274;26;20007;-53
2024/04/10 04:24:14;;;;;;;1.55;0.70;;;9.60;66.60;;;4.78;100.00;96341.72;5398929;26;20374;-54
2024/04/10 04:26:40;;;;;;;1.65;0.60;;;9.60;65.90;;;4.80;100.00;96352.88;5404130;26;20011;-50
2024/04/10 04:29:05;;;;;;;0.95;0.50;;;9.60;65.80;;;4.80;100.00;96344.97;5400007;26;20115;-52
2024/04/10 04:31:32;;;;;;;0.90;0.70;;;9.60;65.80;;;4.80;100.00;96350.25;5401934;26;20847;-57
2024/04/10 04:33:59;;;;;;;4.88;0.60;;;9.60;65.80;;;4.79;100.00;96353.88;5394765;26;20391;-55
2024/04/10 04:36:25;;;;;;;2.08;0.50;;;9.60;65.80;;;4.79;100.00;96356.53;5402536;26;20007;-56
2024/04/10 04:38:51;;;;;;;1.15;0.60;;;9.60;65.80;;;4.78;100.00;96357.56;5395353;26;20019;-57
2024/04/10 04:41:17;;;;;;;1.13;0.47;;;9.60;65.80;;;4.77;100.00;96360.41;5396944;26;20026;-55
2024/04/10 04:43:43;;;;;;;2.95;1.02;;;9.60;65.80;;;4.79;100.00;96353.06;5398199;26;20003;-56
2024/04/10 04:46:11;;;;;;;3.92;0.80;;;9.60;65.80;;;4.81;100.00;96362.41;5401349;26;20015;-57
2024/04/10 04:48:37;;;;;;;1.10;0.70;;;9.60;65.80;;;4.82;100.00;96355.31;5401996;26;20011;-57
2024/04/10 04:51:07;;;;;;;1.52;0.60;;;9.60;65.80;;;4.83;100.00;96364.84;5395594;26;20424;-57
2024/04/10 04:53:34;;;;;;;1.85;0.55;;;9.60;65.80;;;4.82;100.00;96360.56;5398644;26;20018;-57
2024/04/10 04:56:00;;;;;;;1.30;0.70;;;9.60;65.80;;;4.82;100.00;96357.94;5394099;26;20080;-57
2024/04/10 04:58:25;;;;;;;4.43;0.90;;;9.60;65.80;;;4.80;100.00;96360.81;5396185;26;20011;-57
2024/04/10 05:00:51;;;;;;;3.15;0.90;;;9.60;65.80;;;4.80;100.00;96360.81;5392069;21;20015;-52
2024/04/10 05:06:08;;;;;;;0.95;0.70;;;9.60;65.80;;;4.79;100.00;96364.44;5359044;26;20753;-48
2024/04/10 05:08:35;;;;;;;1.80;0.70;;;9.60;65.90;;;4.77;100.00;96369.13;5365186;26;20015;-52
2024/04/10 05:11:07;;;;;;;1.23;0.82;;;9.60;65.80;;;4.76;100.00;96369.34;5362169;26;20012;-51
2024/04/10 05:13:34;;;;;;;5.90;1.17;;;9.60;65.80;;;4.72;100.00;96371.59;5355087;26;20019;-49
2024/04/10 05:16:01;;;;;;;3.30;0.70;;;9.60;65.70;;;4.76;100.00;96380.69;5363719;26;20011;-52
2024/04/10 05:18:27;;;;;;;2.30;0.70;;;9.60;65.70;;;4.73;100.00;96386.41;5366513;26;20004;-53
2024/04/10 05:20:52;;;;;;;2.88;0.80;;;9.60;65.60;;;4.73;100.00;96393.50;5363658;26;20085;-53
2024/04/10 05:23:19;;;;;;;7.25;1.20;;;9.60;65.70;;;4.74;100.00;96393.31;5370786;26;20089;-53
2024/04/10 05:25:49;;;;;;;0.80;0.80;;;9.60;65.70;;;4.76;100.00;96407.09;5363060;26;20000;-53
2024/04/10 05:28:15;;;;;;;5.38;1.00;;;9.60;65.80;;;4.77;100.00;96418.50;5358526;26;20080;-53
2024/04/10 05:30:41;;;;;;;1.75;0.93;;;9.60;65.80;;;4.79;100.00;96409.31;5368830;26;20012;-51
2024/04/10 05:33:07;;;;;;;2.72;1.42;;;9.60;65.80;;;4.81;100.00;96417.03;5368335;26;20004;-53
2024/04/10 05:35:33;;;;;;;1.17;1.00;;;9.70;65.90;;;4.80;100.00;96410.16;5363310;26;20004;-49
2024/04/10 05:37:59;;;;;;;2.20;1.17;;;9.70;65.80;;;4.82;100.00;96413.38;5371054;26;20000;-51
2024/04/10 05:40:25;;;;;;;2.08;0.95;;;9.70;65.80;;;4.83;100.00;96418.47;5362968;26;20357;-48
2024/04/10 05:42:52;;;;;;;2.17;1.10;;;9.70;65.70;;;4.83;100.00;96418.47;5356319;26;20004;-53
2024/04/10 05:45:18;;;;;;;1.92;1.00;;;9.70;65.70;;;4.84;100.00;96414.00;5361351;26;20004;-50
2024/04/10 05:47:51;;;;;;;1.15;1.05;;;9.80;65.80;;;4.84;100.00;96414.78;5364805;26;20490;-50
2024/04/10 05:50:17;;;;;;;2.25;0.90;;;9.80;65.90;;;4.85;100.00;96418.25;5360061;26;20004;-53
2024/04/10 05:52:43;;;;;;;1.88;1.00;;;9.80;65.80;;;4.87;100.00;96424.94;5352967;26;20010;-48
2024/04/10 05:55:10;;;;;;;2.38;1.33;;;9.90;65.80;;;4.90;100.00;96422.91;5364198;26;20028;-49
2024/04/10 05:57:37;;;;;;;1.40;1.08;;;9.90;65.70;;;4.92;100.00;96415.56;5365633;26;20007;-48
2024/04/10 06:00:05;;;;;;;2.65;1.23;;;9.90;65.70;;;4.93;100.00;96419.84;5368042;26;20004;-51
2024/04/10 06:02:31;;;;;;;1.98;1.27;;;10.00;65.70;;;4.97;100.00;96427.13;5357647;26;20018;-49
2024/04/10 06:04:58;;;;;;;2.67;1.35;;;10.00;65.60;;;4.99;100.00;96417.19;5357949;26;20010;-52
2024/04/10 06:07:25;;;;;;;1.50;1.17;;;10.00;65.60;;;5.00;100.00;96418.81;5366881;26;20358;-53
2024/04/10 06:09:58;;;;;;;4.22;1.50;;;10.10;65.60;;;5.03;100.00;96426.31;5359252;26;20459;-54
2024/04/10 06:12:24;;;;;;;1.77;1.30;;;10.20;65.70;;;5.06;100.00;96433.81;5367789;26;20007;-50
2024/04/10 06:14:55;;;;;;;4.85;1.25;;;10.30;65.60;;;5.12;100.00;96436.66;5360253;26;20003;-51
2024/04/10 06:17:22;;;;;;;1.55;1.20;;;10.40;65.50;;;5.18;100.00;96433.19;5368547;26;20408;-53
2024/04/10 06:19:49;;;;;;;1.70;1.20;;;10.40;65.30;;;5.26;100.00;96439.00;5369566;26;20003;-49
2024/04/10 06:22:16;;;;;;;3.65;1.40;;;10.50;65.20;;;5.35;100.00;96439.59;5361787;26;20000;-50
2024/04/10 06:24:46;;;;;;;2.17;1.40;;;10.60;65.20;;;5.44;100.00;96445.44;5368692;26;20430;-54
2024/04/10 06:27:14;;;;;;;3.85;1.40;;;10.70;65.20;;;5.52;100.00;96455.78;5367795;26;20000;-52
2024/04/10 06:29:44;;;;;;;2.63;1.52;;;10.80;65.20;;;5.59;100.00;96459.19;5368081;26;20008;-50
2024/04/10 06:32:13;;;;;;;3.70;1.27;;;10.80;65.10;;;5.65;100.00;96457.56;5365412;26;20004;-51
2024/04/10 06:34:40;;;;;;;2.28;1.17;;;10.90;65.00;;;5.74;100.00;96470.31;5355067;26;20036;-51
2024/04/10 06:37:06;;;;;;;2.35;1.63;;;11.00;64.80;;;5.80;100.00;96461.53;5365100;26;20546;-54
2024/04/10 06:39:34;;;;;;;4.45;1.70;;;11.10;64.80;;;5.83;100.00;96459.47;5376896;26;20452;-51
2024/04/10 06:42:00;;;;;;;1.88;1.35;;;11.20;64.60;;;5.80;100.00;96458.88;5360001;26;20103;-51
2024/04/10 06:44:26;;;;;;;2.10;1.23;;;11.20;64.50;;;5.88;100.00;96473.66;5369142;26;20012;-52
2024/04/10 06:46:52;;;;;;;1.77;1.13;;;11.30;64.30;;;5.97;100.00;96461.03;5368651;26;20038;-49
2024/04/10 06:49:19;;;;;;;1.58;1.20;;;11.40;64.30;;;6.08;100.00;96464.81;5369276;26;20011;-50
2024/04/10 06:51:45;;;;;;;2.30;1.30;;;11.50;64.20;;;6.15;100.00;96477.00;5364611;26;20076;-55
2024/04/10 06:54:11;;;;;;;1.90;1.15;;;11.60;64.00;;;6.24;100.00;96472.25;5361516;26;20367;-50
2024/04/10 06:56:37;;;;;;;2.85;1.40;;;11.70;63.90;;;6.31;100.00;96480.94;5368639;26;20052;-50
2024/04/10 06:59:03;;;;;;;2.30;1.48;;;11.80;63.80;;;6.39;100.00;96478.03;5350485;26;20012;-53
2024/04/10 07:01:29;;;;;;;2.33;1.60;;;12.00;63.60;;;6.50;100.00;96481.81;5365673;26;20015;-48
2024/04/10 07:03:55;;;;;;;5.68;1.90;;;12.00;63.40;;;6.58;100.00;96484.19;5355585;26;20000;-55
2024/04/10 07:06:21;;;;;;;3.10;1.80;;;12.20;63.30;;;6.67;100.00;96487.34;5362869;26;20097;-54
2024/04/10 07:08:50;;;;;;;2.40;1.67;;;12.30;63.20;;;6.79;100.00;96485.63;5350878;26;19999;-54
2024/04/10 07:11:20;;;;;;;3.03;1.75;;;12.50;63.00;;;6.85;100.00;96486.59;5359959;26;19997;-54
2024/04/10 07:13:52;;;;;;;2.83;1.80;;;12.60;62.70;;;7.01;100.00;96493.16;5360799;26;20015;-57
2024/04/10 07:16:26;;;;;;;3.72;1.88;;;12.80;62.40;;;7.08;100.00;96491.22;5353923;26;20087;-55
2024/04/10 07:18:56;;;;;;;4.47;2.00;;;12.90;62.10;;;7.18;100.00;96495.00;5362369;26;20026;-51
2024/04/10 07:21:22;;;;;;;2.70;1.98;;;13.10;61.80;;;7.23;100.00;96491.69;5355012;26;20007;-58
2024/04/10 07:23:49;;;;;;;3.25;1.80;;;13.20;61.40;;;7.29;100.00;96498.75;5362391;26;20470;-58
2024/04/10 07:26:22;;;;;;;4.70;2.13;;;13.30;61.00;;;7.48;100.00;96496.91;5365439;26;20007;-57
2024/04/10 07:28:57;;;;;;;3.20;1.77;;;13.40;60.60;;;7.70;100.00;96493.78;5359005;26;20005;-56
2024/04/10 07:31:33;;;;;;;3.55;1.70;;;13.70;60.30;;;7.81;96.38;96490.38;5362542;26;20016;-58
2024/04/10 07:34:00;;;;;;;4.18;1.88;;;13.90;59.90;;;7.96;95.23;96492.63;5356298;26;20081;-57
2024/04/10 07:36:27;;;;;;;3.35;2.00;;;14.00;59.50;;;8.13;94.12;96495.44;5360678;26;20017;-58
2024/04/10 07:38:56;;;;;;;4.90;2.28;;;14.20;59.20;;;8.24;91.81;96486.69;5365409;26;20012;-57
2024/04/10 07:41:23;;;;;;;3.22;1.88;;;14.40;58.90;;;8.34;88.88;96501.03;5361241;26;20019;-58
2024/04/10 07:43:49;;;;;;;3.75;2.05;;;14.60;58.60;;;8.44;90.48;96495.22;5363975;26;20016;-53
2024/04/10 07:46:19;;;;;;;6.13;1.80;;;14.70;58.10;;;8.53;88.50;96501.00;5357452;26;19997;-49
2024/04/10 07:49:03;;;;;;;4.20;1.70;;;14.80;57.70;;;8.56;87.68;96504.00;5364624;26;20064;-50
2024/04/10 07:51:29;;;;;;;4.93;2.00;;;15.00;57.40;;;8.69;88.66;96497.66;5359412;26;20351;-53
2024/04/10 07:53:56;;;;;;;4.38;2.10;;;15.00;57.30;;;8.96;87.84;96513.13;5365735;26;20008;-50
2024/04/10 07:56:22;;;;;;;4.40;1.60;;;15.30;57.20;;;9.17;83.63;96512.56;5353014;26;20048;-47
2024/04/10 07:58:48;;;;;;;4.15;1.90;;;15.50;56.70;;;9.35;84.20;96510.81;5357470;26;20092;-49
2024/04/10 08:01:16;;;;;;;4.40;1.70;;;15.70;56.50;;;9.48;82.58;96511.34;5353535;26;20044;-47
2024/04/10 08:03:42;;;;;;;4.57;1.83;;;15.90;56.30;;;9.73;84.83;96512.91;5359213;26;20016;-54
2024/04/10 08:06:12;;;;;;;4.53;1.80;;;16.10;56.00;;;9.85;84.25;96512.88;5348706;26;20410;-52
2024/04/10 08:08:45;;;;;;;4.70;1.73;;;16.20;55.70;;;9.80;78.76;96505.59;5357188;26;20081;-52
2024/04/10 08:11:21;;;;;;;;;;;16.40;55.30;;;10.06;79.98;96514.06;5360523;26;20370;-47
2024/04/10 08:13:47;;;;;;;3.08;1.70;;;16.50;55.40;;;10.09;76.58;96518.91;5351832;26;19926;-46
2024/04/10 08:16:15;;;;;;;2.25;1.60;;;16.60;54.60;;;10.24;76.91;96516.53;5359316;26;20028;-56
2024/04/10 08:18:45;;;;;;;5.97;1.70;;;16.60;54.10;;;10.28;75.06;96527.53;5353423;26;20080;-49
2024/04/10 08:21:14;;;;;;;6.45;2.30;;;16.60;53.60;;;10.41;75.77;96519.25;5356792;26;20511;-51
2024/04/10 08:23:43;;;;;;;4.57;1.90;;;16.70;53.20;;;10.37;73.79;96520.75;5346383;26;20009;-53
2024/04/10 08:26:16;;;;;;;3.83;1.70;;;16.70;52.90;;;10.30;76.07;96533.44;5347952;26;20036;-50
2024/04/10 08:28:52;;;;;;;3.50;2.10;;;16.70;52.90;;;10.16;73.62;96528.38;5356449;26;20019;-55
2024/04/10 08:31:24;;;;;;;5.22;1.85;;;16.60;52.70;;;9.99;74.42;96532.03;5355378;26;20004;-51
2024/04/10 08:33:52;;;;;;;3.22;1.95;;;16.50;52.40;;;9.93;76.48;96531.94;5355648;26;20387;-50
2024/04/10 08:36:21;;;;;;;3.50;1.60;;;16.40;52.50;;;9.94;77.49;96546.06;5357993;26;20035;-49
2024/04/10 08:38:48;;;;;;;3.75;1.40;;;16.30;52.40;;;9.88;75.77;96553.13;5361360;26;20015;-49
2024/04/10 08:41:19;;;;;;;3.78;1.20;;;16.10;52.40;;;9.58;72.22;96555.97;5363870;26;20000;-47
2024/04/10 08:43:51;;;;;;;4.40;1.13;;;16.00;51.90;;;9.45;73.34;96561.53;5358628;26;20008;-46
2024/04/10 08:46:21;;;;;;;4.30;1.83;;;15.70;51.80;;;9.00;74.35;96576.25;5349560;26;20004;-52
2024/04/10 08:48:51;;;;;;;3.97;1.40;;;15.50;51.70;;;8.95;76.10;96584.06;5358389;26;20004;-48
2024/04/10 08:51:17;;;;;;;5.05;1.83;;;15.20;51.80;;;8.90;75.22;96586.63;5356322;26;20414;-52
2024/04/10 08:53:47;;;;;;;5.15;1.73;;;15.00;51.70;;;9.01;76.98;96596.44;5357169;26;20005;-48
2024/04/10 08:56:15;;;;;;;5.82;1.65;;;15.00;52.00;;;8.95;75.12;96600.03;5370558;26;20011;-52
2024/04/10 08:58:43;;;;;;;4.97;1.60;;;14.90;52.00;;;9.00;76.18;96605.47;5368976;26;20000;-53
2024/04/10 09:01:09;;;;;;;5.15;1.50;;;14.90;52.10;;;9.10;74.83;96614.72;5352257;26;20004;-49
2024/04/10 09:03:37;;;;;;;3.80;1.63;;;15.10;52.10;;;9.15;76.26;96622.81;5360809;26;20467;-53
2024/04/10 09:06:09;;;;;;;7.20;1.73;;;15.20;52.00;;;9.09;73.52;96621.06;5353501;26;20011;-49
2024/04/10 09:08:37;;;;;;;6.75;1.90;;;15.40;51.70;;;9.23;73.86;96615.31;5362518;26;19999;-53
2024/04/10 09:11:04;;;;;;;4.60;1.58;;;15.50;51.60;;;9.36;72.98;96624.09;5368917;26;20450;-50
2024/04/10 09:13:30;;;;;;;5.93;1.55;;;15.60;51.80;;;9.48;74.96;96623.06;5353129;26;20008;-52
2024/04/10 09:16:00;;;;;;;7.97;1.77;;;15.80;51.10;;;9.63;72.61;96619.94;5358753;26;20040;-53
2024/04/10 09:18:27;;;;;;;6.35;1.75;;;15.90;50.80;;;9.79;73.41;96626.38;5350827;26;20007;-49
2024/04/10 09:21:14;;;;;;;7.25;1.95;;;16.00;50.80;;;9.86;73.70;96627.06;5353237;26;19999;-49
2024/04/10 09:23:40;;;;;;;6.22;1.88;;;16.20;50.60;;;9.91;72.64;96629.03;5360839;26;20018;-52
2024/04/10 09:26:07;;;;;;;4.85;1.75;;;16.20;50.40;;;9.95;73.77;96633.63;5367372;26;20047;-52
2024/04/10 09:28:34;;;;;;;5.75;1.85;;;16.30;50.30;;;10.08;72.88;96629.91;5364988;26;20004;-50
2024/04/10 09:31:00;;;;;;;6.22;2.00;;;16.40;50.10;;;9.90;70.65;96624.75;5367023;26;20000;-54
2024/04/10 09:33:33;;;;;;;7.38;1.98;;;16.50;49.80;;;9.91;73.18;96621.84;5359489;26;20358;-52
2024/04/10 09:36:03;;;;;;;4.05;1.80;;;16.60;49.60;;;10.01;70.38;96623.91;5370905;26;20005;-53
2024/04/10 09:38:33;;;;;;;4.13;1.50;;;16.70;49.40;;;10.06;71.53;96625.84;5369792;26;20077;-52
2024/04/10 09:41:04;;;;;;;4.25;1.95;;;16.90;49.10;;;10.05;70.41;96625.06;5365721;26;20004;-53
2024/04/10 09:43:31;;;;;;;5.15;1.60;;;17.10;48.60;;;10.24;nan;96625.69;5365993;26;20032;-53
2024/04/10 09:46:03;;;;;;;6.25;2.17;;;17.30;48.20;;;10.69;68.73;96619.66;5368087;26;20044;-52
2024/04/10 09:48:33;;;;;;;4.43;2.03;;;17.70;48.00;;;11.02;67.34;96615.38;5369540;26;20015;-54
2024/04/10 09:51:05;;;;;;;8.40;2.30;;;18.10;47.70;;;11.11;66.18;96608.59;5365566;26;20012;-53
2024/04/10 09:53:36;;;;;;;4.85;1.92;;;18.50;47.10;;;11.59;64.44;96607.19;5367248;26;20000;-54
2024/04/10 09:56:09;;;;;;;6.63;1.90;;;18.90;46.40;;;11.76;60.87;96604.50;5369820;26;20438;-56
2024/04/10 09:58:39;;;;;;;4.32;1.73;;;19.40;45.50;;;11.85;60.87;96605.72;5363129;26;20011;-53
2024/04/10 10:01:06;;;;;;;6.47;2.05;;;19.70;44.50;;;11.80;58.32;96609.06;5359446;26;20008;-53
2024/04/10 10:03:32;;;;;;;5.55;1.75;;;19.80;43.60;;;11.71;56.10;96604.41;5356022;26;20035;-53
2024/04/10 10:06:08;;;;;;;3.92;1.60;;;19.80;43.00;;;11.33;58.25;96600.69;5356379;26;20013;-52
2024/04/10 10:08:36;;;;;;;5.50;1.52;;;19.80;42.50;;;11.53;57.04;96595.66;5366276;26;20472;-51
2024/04/10 10:11:06;;;;;;;8.40;1.80;;;19.70;42.30;;;11.39;57.43;96594.38;5359282;26;20112;-55
2024/04/10 10:13:42;;;;;;;5.32;1.90;;;19.60;42.20;;;11.72;60.12;96592.66;5367371;26;20508;-57
2024/04/10 10:16:09;;;;;;;8.02;2.42;;;19.50;42.30;;;11.93;60.02;96594.59;5358112;26;20008;-52
2024/04/10 10:18:35;;;;;;;4.03;1.60;;;19.40;42.70;;;12.24;56.70;96598.41;5358770;26;20019;-54
2024/04/10 10:21:08;;;;;;;7.30;1.90;;;19.50;42.60;;;12.49;57.18;96599.75;5362861;26;20027;-52
2024/04/10 10:23:39;;;;;;;;;;;19.80;42.50;;;12.52;58.50;96593.91;5366333;26;20014;-51
2024/04/10 10:26:09;;;;;;;9.60;2.00;;;19.90;43.00;;;12.15;57.32;96599.91;5363054;26;19933;-52
2024/04/10 10:28:36;;;;;;;5.05;1.98;;;19.90;42.10;;;12.12;58.29;96599.63;5359959;26;20051;-49